Wetterstation Vordersexau
Wetterdaten: Woche 17.10.11 - 23.10.11 (KW42)
Datum Zeit Temp. A. Feuchte A. Luftdruck Regen Wind Richtung Taupunkt Windchill Windben
17.10.2011 00:00 5,8 C 84 % 1022,8 hPa 0,0 l/m 0,0 km/h NO 3,3 C 5,8 C 0,0 km/h
17.10.2011 01:00 5,4 C 84 % 1022,8 hPa 0,0 l/m 0,0 km/h O-NO 2,9 C 5,4 C 0,0 km/h
17.10.2011 02:00 6,1 C 83 % 1022,9 hPa 0,0 l/m 0,0 km/h SO 3,4 C 6,1 C 0,0 km/h
17.10.2011 03:00 5,8 C 82 % 1022,7 hPa 0,0 l/m 0,0 km/h NO 3,0 C 5,8 C 0,0 km/h
17.10.2011 04:00 4,9 C 83 % 1022,5 hPa 0,0 l/m 0,0 km/h NO 2,3 C 4,9 C 0,0 km/h
17.10.2011 05:00 5,6 C 82 % 1022,6 hPa 0,0 l/m 0,0 km/h SO 2,8 C 5,6 C 0,0 km/h
17.10.2011 06:00 5,3 C 82 % 1022,3 hPa 0,0 l/m 0,0 km/h O-NO 2,5 C 5,3 C 0,0 km/h
17.10.2011 07:00 3,9 C 83 % 1022,3 hPa 0,0 l/m 0,0 km/h N 1,3 C 3,9 C 0,0 km/h
17.10.2011 08:00 3,3 C 83 % 1022,6 hPa 0,0 l/m 0,0 km/h N 0,7 C 3,3 C 0,0 km/h
17.10.2011 09:00 6,4 C 78 % 1022,7 hPa 0,0 l/m 0,0 km/h W-NW 2,8 C 6,4 C 0,0 km/h
17.10.2011 10:00 8,3 C 80 % 1022,8 hPa 0,0 l/m 0,0 km/h W-NW 5,1 C 8,3 C 0,0 km/h
17.10.2011 11:00 13,4 C 80 % 1022,5 hPa 0,0 l/m 0,0 km/h W-SW 10,0 C 13,4 C 0,0 km/h
17.10.2011 12:00 18,3 C 66 % 1022,2 hPa 0,0 l/m 0,0 km/h O-SO 11,8 C 18,3 C 0,0 km/h
17.10.2011 13:00 19,7 C 59 % 1021,6 hPa 0,0 l/m 0,0 km/h W-NW 11,5 C 19,7 C 0,0 km/h
17.10.2011 14:00 20,2 C 54 % 1020,8 hPa 0,0 l/m 0,0 km/h NW 10,6 C 20,2 C 0,0 km/h
17.10.2011 15:00 23,1 C 47 % 1020,3 hPa 0,0 l/m 0,0 km/h O-SO 11,2 C 23,1 C 0,0 km/h
17.10.2011 16:00 19,8 C 53 % 1020,0 hPa 0,0 l/m 0,0 km/h O-SO 9,9 C 19,8 C 0,0 km/h
17.10.2011 17:00 21,3 C 48 % 1019,7 hPa 0,0 l/m 0,0 km/h SO 9,8 C 21,3 C 0,0 km/h
17.10.2011 18:00 14,3 C 68 % 1019,6 hPa 0,0 l/m 0,0 km/h O-SO 8,5 C 14,3 C 0,0 km/h
17.10.2011 19:00 10,7 C 79 % 1019,7 hPa 0,0 l/m 0,0 km/h O 7,2 C 10,7 C 0,0 km/h
17.10.2011 20:00 9,5 C 82 % 1019,6 hPa 0,0 l/m 0,0 km/h NO 6,6 C 9,5 C 0,0 km/h
17.10.2011 21:00 8,5 C 83 % 1019,6 hPa 0,0 l/m 0,0 km/h O-SO 5,8 C 8,5 C 0,0 km/h
17.10.2011 22:00 7,6 C 84 % 1019,7 hPa 0,0 l/m 0,0 km/h SO 5,1 C 7,6 C 0,0 km/h
17.10.2011 23:00 7,1 C 84 % 1019,3 hPa 0,0 l/m 0,0 km/h O-NO 4,6 C 7,1 C 0,0 km/h
18.10.2011 00:00 6,8 C 83 % 1019,3 hPa 0,0 l/m 0,0 km/h O-NO 4,1 C 6,8 C 0,0 km/h
18.10.2011 01:00 5,9 C 84 % 1018,8 hPa 0,0 l/m 0,0 km/h O-SO 3,4 C 5,9 C 0,0 km/h
18.10.2011 02:00 5,9 C 83 % 1018,3 hPa 0,0 l/m 0,0 km/h O-NO 3,2 C 5,9 C 0,0 km/h
18.10.2011 03:00 6,1 C 82 % 1017,9 hPa 0,0 l/m 0,0 km/h SO 3,3 C 6,1 C 0,0 km/h
18.10.2011 04:00 5,9 C 82 % 1017,0 hPa 0,0 l/m 5,2 km/h SO 3,1 C 5,9 C 2,9 km/h
18.10.2011 05:00 6,1 C 81 % 1016,6 hPa 0,0 l/m 11,0 km/h S 3,1 C 2,6 C 6,1 km/h
18.10.2011 06:00 6,2 C 81 % 1016,4 hPa 0,0 l/m 0,0 km/h SO 3,2 C 6,2 C 0,0 km/h
18.10.2011 07:00 5,8 C 81 % 1015,9 hPa 0,0 l/m 4,5 km/h O-NO 2,8 C 5,8 C 2,5 km/h
18.10.2011 08:00 6,4 C 80 % 1015,8 hPa 0,0 l/m 0,0 km/h S-SO 3,2 C 6,4 C 0,0 km/h
18.10.2011 09:00 11,1 C 84 % 1015,6 hPa 0,0 l/m 5,8 km/h O-NO 8,5 C 11,1 C 3,2 km/h
18.10.2011 10:00 17,9 C 70 % 1015,0 hPa 0,0 l/m 0,0 km/h S-SW 12,3 C 17,9 C 0,0 km/h
18.10.2011 11:00 21,4 C 52 % 1014,6 hPa 0,0 l/m 21,4 km/h SW 11,1 C 17,8 C 11,9 km/h
18.10.2011 12:00 22,1 C 48 % 1013,9 hPa 0,0 l/m 16,2 km/h W 10,6 C 19,6 C 9,0 km/h
18.10.2011 13:00 21,4 C 46 % 1013,3 hPa 0,0 l/m 31,8 km/h W-SW 9,3 C 16,5 C 17,6 km/h
18.10.2011 14:00 21,6 C 46 % 1012,5 hPa 0,0 l/m 21,4 km/h W-SW 9,5 C 18,1 C 11,9 km/h
18.10.2011 15:00 22,7 C 39 % 1011,8 hPa 0,0 l/m 22,7 km/h W-SW 8,0 C 19,3 C 12,6 km/h
18.10.2011 16:00 19,9 C 45 % 1011,5 hPa 0,0 l/m 20,1 km/h S 7,6 C 16,1 C 11,2 km/h
18.10.2011 17:00 19,4 C 49 % 1011,4 hPa 0,0 l/m 25,3 km/h W 8,4 C 14,5 C 14,0 km/h
18.10.2011 18:00 17,6 C 53 % 1011,2 hPa 0,0 l/m 14,3 km/h W-SW 7,9 C 14,5 C 7,9 km/h
18.10.2011 19:00 17,4 C 54 % 1011,5 hPa 0,0 l/m 20,1 km/h W 8,0 C 12,8 C 11,2 km/h
18.10.2011 20:00 16,8 C 55 % 1011,6 hPa 0,0 l/m 0,0 km/h W-NW 7,7 C 16,8 C 0,0 km/h
18.10.2011 21:00 15,5 C 59 % 1011,3 hPa 0,0 l/m 0,0 km/h W-NW 7,5 C 15,5 C 0,0 km/h
18.10.2011 22:00 15,4 C 61 % 1011,6 hPa 0,0 l/m 0,0 km/h W 7,9 C 15,4 C 0,0 km/h
18.10.2011 23:00 14,4 C 68 % 1011,7 hPa 0,0 l/m 14,3 km/h NW 8,6 C 10,7 C 7,9 km/h
19.10.2011 00:00 14,9 C 67 % 1012,0 hPa 0,0 l/m 0,0 km/h S-SO 8,8 C 14,9 C 0,0 km/h
19.10.2011 01:00 11,4 C 76 % 1012,6 hPa 0,0 l/m 0,0 km/h N-NO 7,3 C 11,4 C 0,0 km/h
19.10.2011 02:00 8,9 C 78 % 1013,7 hPa 0,0 l/m 5,2 km/h N-NO 5,3 C 8,9 C 2,9 km/h
19.10.2011 03:00 7,8 C 83 % 1013,5 hPa 1,1 l/m 0,0 km/h N-NO 5,1 C 7,8 C 0,0 km/h
19.10.2011 04:00 7,6 C 84 % 1012,9 hPa 1,1 l/m 0,0 km/h N 5,1 C 7,6 C 0,0 km/h
19.10.2011 05:00 7,4 C 84 % 1012,6 hPa 0,4 l/m 0,0 km/h N 4,9 C 7,4 C 0,0 km/h
19.10.2011 06:00 6,9 C 84 % 1013,2 hPa 0,4 l/m 0,0 km/h N-NW 4,4 C 6,9 C 0,0 km/h
19.10.2011 07:00 6,8 C 83 % 1013,3 hPa 1,4 l/m 0,0 km/h N-NW 4,1 C 6,8 C 0,0 km/h
19.10.2011 08:00 6,5 C 83 % 1013,6 hPa 1,4 l/m 0,0 km/h N 3,8 C 6,5 C 0,0 km/h
19.10.2011 09:00 6,1 C 83 % 1014,7 hPa 1,1 l/m 0,0 km/h W-NW 3,4 C 6,1 C 0,0 km/h
19.10.2011 10:00 5,9 C 83 % 1015,5 hPa 1,8 l/m 0,0 km/h NW 3,2 C 5,9 C 0,0 km/h
19.10.2011 11:00 5,4 C 84 % 1016,4 hPa 1,4 l/m 0,0 km/h N-NO 2,9 C 5,4 C 0,0 km/h
19.10.2011 12:00 4,8 C 85 % 1017,4 hPa 1,1 l/m 0,0 km/h NW 2,5 C 4,8 C 0,0 km/h
19.10.2011 13:00 5,3 C 85 % 1017,4 hPa 0,7 l/m 0,0 km/h S 3,0 C 5,3 C 0,0 km/h
19.10.2011 14:00 5,3 C 85 % 1017,2 hPa 0,4 l/m 1,9 km/h S-SO 3,0 C 5,3 C 1,1 km/h
19.10.2011 15:00 5,4 C 85 % 1017,6 hPa 0,0 l/m 3,2 km/h S-SO 3,1 C 5,4 C 1,8 km/h
19.10.2011 16:00 5,5 C 85 % 1018,0 hPa 0,0 l/m 0,0 km/h S-SO 3,2 C 5,5 C 0,0 km/h
19.10.2011 17:00 5,6 C 85 % 1019,0 hPa 0,0 l/m 3,9 km/h S-SW 3,3 C 5,6 C 2,2 km/h
19.10.2011 18:00 5,4 C 85 % 1019,6 hPa 0,0 l/m 0,0 km/h S-SW 3,1 C 5,4 C 0,0 km/h
19.10.2011 19:00 5,5 C 85 % 1020,5 hPa 0,0 l/m 0,0 km/h S-SO 3,2 C 5,5 C 0,0 km/h
19.10.2011 20:00 5,2 C 85 % 1020,5 hPa 0,0 l/m 0,6 km/h SO 2,9 C 5,2 C 0,4 km/h
19.10.2011 21:00 5,3 C 84 % 1020,9 hPa 0,0 l/m 3,2 km/h NO 2,8 C 5,3 C 1,8 km/h
19.10.2011 22:00 5,0 C 83 % 1021,2 hPa 0,0 l/m 0,0 km/h O-SO 2,4 C 5,0 C 0,0 km/h
19.10.2011 23:00 4,8 C 83 % 1021,3 hPa 0,0 l/m 0,0 km/h N-NO 2,2 C 4,8 C 0,0 km/h
20.10.2011 00:00 5,1 C 83 % 1021,5 hPa 0,0 l/m 1,3 km/h N-NO 2,5 C 5,1 C 0,7 km/h
20.10.2011 01:00 4,0 C 84 % 1021,4 hPa 0,0 l/m 0,0 km/h SO 1,5 C 4,0 C 0,0 km/h
20.10.2011 02:00 5,1 C 82 % 1021,7 hPa 0,0 l/m 0,0 km/h O 2,3 C 5,1 C 0,0 km/h
20.10.2011 03:00 5,3 C 82 % 1021,7 hPa 0,0 l/m 0,0 km/h O 2,5 C 5,3 C 0,0 km/h
20.10.2011 04:00 5,3 C 81 % 1021,8 hPa 0,0 l/m 0,0 km/h S-SO 2,3 C 5,3 C 0,0 km/h
20.10.2011 05:00 5,8 C 81 % 1022,0 hPa 0,0 l/m 0,0 km/h O-NO 2,8 C 5,8 C 0,0 km/h
20.10.2011 06:00 5,9 C 80 % 1022,7 hPa 0,0 l/m 0,0 km/h O 2,7 C 5,9 C 0,0 km/h
20.10.2011 07:00 4,8 C 82 % 1022,8 hPa 0,0 l/m 0,0 km/h O 2,0 C 4,8 C 0,0 km/h
20.10.2011 08:00 4,2 C 82 % 1023,6 hPa 0,0 l/m 0,0 km/h O-NO 1,4 C 4,2 C 0,0 km/h
20.10.2011 09:00 7,1 C 74 % 1024,4 hPa 0,0 l/m 0,0 km/h W 2,8 C 7,1 C 0,0 km/h
20.10.2011 10:00 8,3 C 85 % 1024,5 hPa 0,0 l/m 0,0 km/h W-SW 5,9 C 8,3 C 0,0 km/h
20.10.2011 11:00 10,1 C 78 % 1024,7 hPa 0,0 l/m 0,0 km/h W-SW 6,4 C 10,1 C 0,0 km/h
20.10.2011 12:00 9,4 C 79 % 1024,9 hPa 0,0 l/m 0,0 km/h W 5,9 C 9,4 C 0,0 km/h
20.10.2011 13:00 15,6 C 61 % 1024,2 hPa 0,0 l/m 10,4 km/h N 8,1 C 13,6 C 5,8 km/h
20.10.2011 14:00 12,7 C 57 % 1023,9 hPa 0,0 l/m 0,0 km/h NO 4,4 C 12,7 C 0,0 km/h
20.10.2011 15:00 14,6 C 53 % 1023,6 hPa 0,0 l/m 0,0 km/h W 5,1 C 14,6 C 0,0 km/h
20.10.2011 16:00 19,6 C 39 % 1023,8 hPa 0,0 l/m 0,0 km/h N-NO 5,3 C 19,6 C 0,0 km/h
20.10.2011 17:00 10,9 C 56 % 1024,1 hPa 0,0 l/m 5,8 km/h O-NO 2,5 C 10,9 C 3,2 km/h
20.10.2011 18:00 8,2 C 70 % 1024,5 hPa 0,0 l/m 0,0 km/h O-NO 3,1 C 8,2 C 0,0 km/h
20.10.2011 19:00 7,3 C 75 % 1025,0 hPa 0,0 l/m 0,0 km/h SO 3,2 C 7,3 C 0,0 km/h
20.10.2011 20:00 5,6 C 78 % 1025,3 hPa 0,0 l/m 0,0 km/h O 2,1 C 5,6 C 0,0 km/h
20.10.2011 21:00 3,6 C 81 % 1025,3 hPa 0,0 l/m 0,0 km/h O 0,7 C 3,6 C 0,0 km/h
20.10.2011 22:00 2,8 C 84 % 1025,7 hPa 0,0 l/m 0,0 km/h O-NO 0,4 C 2,8 C 0,0 km/h
20.10.2011 23:00 1,9 C 84 % 1025,9 hPa 0,0 l/m 0,0 km/h O-NO -0,5 C 1,9 C 0,0 km/h
21.10.2011 00:00 1,2 C 85 % 1025,9 hPa 0,0 l/m 0,0 km/h O-NO -1,0 C 1,2 C 0,0 km/h
21.10.2011 01:00 0,9 C 85 % 1025,6 hPa 0,0 l/m 0,0 km/h NO -1,3 C 0,9 C 0,0 km/h
21.10.2011 02:00 0,5 C 85 % 1025,6 hPa 0,0 l/m 0,0 km/h NO -1,7 C 0,5 C 0,0 km/h
21.10.2011 03:00 0,2 C 85 % 1025,6 hPa 0,0 l/m 0,0 km/h NW -2,0 C 0,2 C 0,0 km/h
21.10.2011 04:00 -0,6 C 85 % 1025,3 hPa 0,0 l/m 0,0 km/h NW -2,8 C -0,6 C 0,0 km/h
21.10.2011 05:00 -0,5 C 85 % 1025,2 hPa 0,0 l/m 0,0 km/h W-NW -2,7 C -0,5 C 0,0 km/h
21.10.2011 06:00 -0,9 C 84 % 1025,3 hPa 0,0 l/m 0,0 km/h W-NW -3,3 C -0,9 C 0,0 km/h
21.10.2011 07:00 -0,1 C 84 % 1025,6 hPa 0,0 l/m 0,0 km/h W-NW -2,5 C -0,1 C 0,0 km/h
21.10.2011 08:00 -0,4 C 84 % 1025,7 hPa 0,0 l/m 0,0 km/h N-NW -2,8 C -0,4 C 0,0 km/h
21.10.2011 09:00 1,5 C 81 % 1026,0 hPa 0,0 l/m 0,0 km/h N-NO -1,4 C 1,5 C 0,0 km/h
21.10.2011 10:00 2,9 C 81 % 1026,3 hPa 0,0 l/m 0,0 km/h W-NW -0,0 C 2,9 C 0,0 km/h
21.10.2011 11:00 3,9 C 82 % 1026,1 hPa 0,0 l/m 0,0 km/h S-SW 1,1 C 3,9 C 0,0 km/h
21.10.2011 12:00 5,0 C 85 % 1025,8 hPa 0,4 l/m 0,0 km/h W 2,7 C 5,0 C 0,0 km/h
21.10.2011 13:00 4,9 C 85 % 1025,3 hPa 0,0 l/m 0,0 km/h W 2,6 C 4,9 C 0,0 km/h
21.10.2011 14:00 5,2 C 85 % 1024,9 hPa 0,0 l/m 2,6 km/h S 2,9 C 5,2 C 1,4 km/h
21.10.2011 15:00 5,9 C 85 % 1024,4 hPa 0,0 l/m 0,0 km/h W-NW 3,6 C 5,9 C 0,0 km/h
21.10.2011 16:00 6,2 C 84 % 1024,2 hPa 0,0 l/m 0,0 km/h W-NW 3,7 C 6,2 C 0,0 km/h
21.10.2011 17:00 5,9 C 84 % 1024,0 hPa 0,0 l/m 0,0 km/h S-SO 3,4 C 5,9 C 0,0 km/h
21.10.2011 18:00 4,9 C 85 % 1024,0 hPa 0,0 l/m 0,0 km/h SO 2,6 C 4,9 C 0,0 km/h
21.10.2011 19:00 4,7 C 85 % 1024,1 hPa 0,0 l/m 3,2 km/h N-NO 2,4 C 4,7 C 1,8 km/h
21.10.2011 20:00 3,9 C 85 % 1024,0 hPa 0,0 l/m 0,0 km/h O 1,6 C 3,9 C 0,0 km/h
21.10.2011 21:00 3,6 C 85 % 1023,7 hPa 0,0 l/m 0,0 km/h S 1,3 C 3,6 C 0,0 km/h
21.10.2011 22:00 3,4 C 84 % 1023,7 hPa 0,0 l/m 0,0 km/h O-NO 1,0 C 3,4 C 0,0 km/h
21.10.2011 23:00 3,0 C 84 % 1023,5 hPa 0,0 l/m 0,0 km/h SO 0,6 C 3,0 C 0,0 km/h
22.10.2011 00:00 2,8 C 84 % 1023,3 hPa 0,0 l/m 1,9 km/h SO 0,4 C 2,8 C 1,1 km/h
22.10.2011 01:00 2,2 C 83 % 1022,7 hPa 0,0 l/m 1,3 km/h S-SO -0,4 C 2,2 C 0,7 km/h
22.10.2011 02:00 1,5 C 83 % 1022,7 hPa 0,0 l/m 0,0 km/h SO -1,1 C 1,5 C 0,0 km/h
22.10.2011 03:00 1,4 C 83 % 1022,4 hPa 0,0 l/m 0,0 km/h S-SO -1,2 C 1,4 C 0,0 km/h
22.10.2011 04:00 1,5 C 82 % 1022,2 hPa 0,0 l/m 0,0 km/h S-SO -1,2 C 1,5 C 0,0 km/h
22.10.2011 05:00 1,4 C 81 % 1022,4 hPa 0,0 l/m 1,3 km/h SO -1,5 C 1,4 C 0,7 km/h
22.10.2011 06:00 1,0 C 81 % 1022,0 hPa 0,0 l/m 0,0 km/h O-NO -1,9 C 1,0 C 0,0 km/h
22.10.2011 07:00 0,5 C 81 % 1021,9 hPa 0,0 l/m 0,0 km/h SO -2,4 C 0,5 C 0,0 km/h
22.10.2011 08:00 0,9 C 81 % 1022,2 hPa 0,0 l/m 0,0 km/h SO -2,0 C 0,9 C 0,0 km/h
22.10.2011 09:00 1,9 C 80 % 1022,3 hPa 0,0 l/m 0,0 km/h N-NO -1,2 C 1,9 C 0,0 km/h
22.10.2011 10:00 2,9 C 83 % 1022,1 hPa 0,0 l/m 0,0 km/h O-SO 0,3 C 2,9 C 0,0 km/h
22.10.2011 11:00 4,4 C 86 % 1022,1 hPa 0,0 l/m 0,0 km/h W-NW 2,3 C 4,4 C 0,0 km/h
22.10.2011 12:00 8,2 C 81 % 1021,8 hPa 0,0 l/m 0,0 km/h W 5,1 C 8,2 C 0,0 km/h
22.10.2011 13:00 9,9 C 71 % 1021,1 hPa 0,0 l/m 0,0 km/h W-NW 4,9 C 9,9 C 0,0 km/h
22.10.2011 14:00 11,3 C 66 % 1020,5 hPa 0,0 l/m 5,2 km/h W-NW 5,2 C 11,3 C 2,9 km/h
22.10.2011 15:00 13,6 C 61 % 1019,7 hPa 0,0 l/m 0,0 km/h N-NO 6,2 C 13,6 C 0,0 km/h
22.10.2011 16:00 15,9 C 54 % 1019,1 hPa 0,0 l/m 0,0 km/h W 6,6 C 15,9 C 0,0 km/h
22.10.2011 17:00 13,8 C 56 % 1018,9 hPa 0,0 l/m 0,0 km/h W-NW 5,2 C 13,8 C 0,0 km/h
22.10.2011 18:00 6,4 C 71 % 1018,9 hPa 0,0 l/m 0,0 km/h NW 1,5 C 6,4 C 0,0 km/h
22.10.2011 19:00 3,6 C 82 % 1019,1 hPa 0,0 l/m 0,0 km/h O-SO 0,8 C 3,6 C 0,0 km/h
22.10.2011 20:00 2,4 C 84 % 1018,9 hPa 0,0 l/m 0,0 km/h O-NO -0,0 C 2,4 C 0,0 km/h
22.10.2011 21:00 1,5 C 85 % 1018,9 hPa 0,0 l/m 0,0 km/h O-NO -0,7 C 1,5 C 0,0 km/h
22.10.2011 22:00 0,9 C 85 % 1019,3 hPa 0,0 l/m 0,0 km/h NO -1,3 C 0,9 C 0,0 km/h
22.10.2011 23:00 0,3 C 85 % 1019,1 hPa 0,0 l/m 0,0 km/h O -1,9 C 0,3 C 0,0 km/h
23.10.2011 00:00 0,8 C 85 % 1019,0 hPa 0,0 l/m 0,0 km/h O-NO -1,4 C 0,8 C 0,0 km/h
23.10.2011 01:00 0,2 C 85 % 1018,5 hPa 0,0 l/m 0,0 km/h NO -2,0 C 0,2 C 0,0 km/h
23.10.2011 02:00 -0,1 C 85 % 1018,6 hPa 0,0 l/m 0,0 km/h NO -2,3 C -0,1 C 0,0 km/h
23.10.2011 03:00 -0,9 C 85 % 1018,7 hPa 0,0 l/m 0,0 km/h NO -3,1 C -0,9 C 0,0 km/h
23.10.2011 04:00 -1,4 C 85 % 1018,5 hPa 0,0 l/m 0,0 km/h NO -3,6 C -1,4 C 0,0 km/h
23.10.2011 05:00 -1,4 C 84 % 1018,3 hPa 0,0 l/m 0,0 km/h S-SO -3,7 C -1,4 C 0,0 km/h
23.10.2011 06:00 -1,1 C 84 % 1018,1 hPa 0,0 l/m 0,0 km/h NO -3,4 C -1,1 C 0,0 km/h
23.10.2011 07:00 -1,1 C 83 % 1017,8 hPa 0,0 l/m 0,0 km/h N-NO -3,6 C -1,1 C 0,0 km/h
23.10.2011 08:00 -0,9 C 83 % 1017,8 hPa 0,0 l/m 0,0 km/h NW -3,4 C -0,9 C 0,0 km/h
23.10.2011 09:00 2,5 C 77 % 1017,9 hPa 0,0 l/m 1,3 km/h O-NO -1,1 C 2,5 C 0,7 km/h
23.10.2011 10:00 9,1 C 84 % 1017,5 hPa 0,0 l/m 0,0 km/h W-NW 6,5 C 9,1 C 0,0 km/h
23.10.2011 11:00 11,1 C 70 % 1017,0 hPa 0,0 l/m 0,0 km/h NW 5,8 C 11,1 C 0,0 km/h
23.10.2011 12:00 12,3 C 66 % 1016,5 hPa 0,0 l/m 3,9 km/h W-NW 6,1 C 12,3 C 2,2 km/h
23.10.2011 13:00 11,8 C 68 % 1015,7 hPa 0,0 l/m 0,0 km/h NW 6,1 C 11,8 C 0,0 km/h
23.10.2011 14:00 12,3 C 68 % 1014,9 hPa 0,0 l/m 3,2 km/h NW 6,6 C 12,3 C 1,8 km/h
23.10.2011 15:00 14,1 C 62 % 1014,3 hPa 0,0 l/m 1,9 km/h W-NW 6,9 C 14,1 C 1,1 km/h
23.10.2011 16:00 15,0 C 58 % 1013,6 hPa 0,0 l/m 0,0 km/h NW 6,8 C 15,0 C 0,0 km/h
23.10.2011 17:00 11,8 C 63 % 1013,2 hPa 0,0 l/m 0,0 km/h W-NW 5,0 C 11,8 C 0,0 km/h
23.10.2011 18:00 4,9 C 79 % 1013,0 hPa 0,0 l/m 0,0 km/h W 1,6 C 4,9 C 0,0 km/h
23.10.2011 19:00 3,8 C 84 % 1013,2 hPa 0,0 l/m 0,0 km/h N-NO 1,4 C 3,8 C 0,0 km/h
23.10.2011 20:00 3,8 C 84 % 1012,9 hPa 0,0 l/m 0,0 km/h W-SW 1,4 C 3,8 C 0,0 km/h
23.10.2011 21:00 3,6 C 84 % 1012,6 hPa 0,0 l/m 0,0 km/h W 1,2 C 3,6 C 0,0 km/h
23.10.2011 22:00 3,5 C 83 % 1012,7 hPa 0,0 l/m 0,0 km/h N-NO 0,9 C 3,5 C 0,0 km/h
23.10.2011 23:00 3,5 C 83 % 1012,2 hPa 0,0 l/m 0,0 km/h N-NW 0,9 C 3,5 C 0,0 km/h
Min-Datum _ 23.10.11 18.10.11 18.10.11 - 17.10.11 - 23.10.11 23.10.11 17.10.11
_ Min-Zeit 04:30 15:30 18:30 - 00:30 - 05:30 04:30 00:30
Minimum _ -1,4 C 39 % 1011,2 hPa - 0,0 km/h - -3,7 C -1,4 C 0,0 km/h
Max-Datum _ 17.10.11 22.10.11 21.10.11 19.10.11 18.10.11 - 18.10.11 17.10.11 18.10.11
_ Max-Zeit 15:30 11:30 10:30 10:30 13:30 - 10:30 15:30 13:30
Maximum _ 23,1 C 86 % 1026,3 hPa 1,8 l/m 31,8 km/h
W-SW
- 12,3 C 23,1 C 17,6 km/h
W-SW
Durchschnitt _ 7,3 C 77 % 1019,7 hPa #12,5 l/m 1,8 km/h O-NO 3,2 C 7,0 C 1,0 km/h
www.sexauwetter.de